Terminal Aerodrome Forecast
Issued by NWS

Home | Current Version | Previous Version | Text Only | Print | Product List | Glossary Off
Versions: 1 2 3 4 5 6 7 8 9 10 11 12 13 14 15 16 17 18 19 20 21 22 23 24

000
FTUS43 KBIS 292300
TAFDIK
TAF
KDIK 292330Z 3000/3024 11015KT 3SM -SHRA OVC007
     FM300600 12011KT 3SM -SHRA OVC005
     FM301700 08012KT 4SM -SHRA BKN008 OVC012=

USA.gov is the U.S. government's official web portal to all federal, state and local government web resources and services.